Map

Track Data

SID SEASON NUMBER BASIN SUBBASIN NAME ISO_TIME NATURE LAT LON WMO_WIND WMO_PRES WMO_AGENCY TRACK_TYPE DIST2LAND LANDFALL IFLAG USA_AGENCY USA_ATCF_ID USA_LAT USA_LON USA_RECORD USA_STATUS USA_WIND USA_PRES USA_SSHS USA_R34_NE USA_R34_SE USA_R34_SW USA_R34_NW USA_R50_NE USA_R50_SE USA_R50_SW USA_R50_NW USA_R64_NE USA_R64_SE USA_R64_SW USA_R64_NW USA_POCI USA_ROCI USA_RMW USA_EYE TOKYO_LAT TOKYO_LON TOKYO_GRADE TOKYO_WIND TOKYO_PRES TOKYO_R50_DIR TOKYO_R50_LONG TOKYO_R50_SHORT TOKYO_R30_DIR TOKYO_R30_LONG TOKYO_R30_SHORT TOKYO_LAND CMA_LAT CMA_LON CMA_CAT CMA_WIND CMA_PRES HKO_LAT HKO_LON HKO_CAT HKO_WIND HKO_PRES NEWDELHI_LAT NEWDELHI_LON NEWDELHI_GRADE NEWDELHI_WIND NEWDELHI_PRES NEWDELHI_CI NEWDELHI_DP NEWDELHI_POCI REUNION_LAT REUNION_LON REUNION_TYPE REUNION_WIND REUNION_PRES REUNION_TNUM REUNION_CI REUNION_RMW REUNION_R34_NE REUNION_R34_SE REUNION_R34_SW REUNION_R34_NW REUNION_R50_NE REUNION_R50_SE REUNION_R50_SW REUNION_R50_NW REUNION_R64_NE REUNION_R64_SE REUNION_R64_SW REUNION_R64_NW BOM_LAT BOM_LON BOM_TYPE BOM_WIND BOM_PRES BOM_TNUM BOM_CI BOM_RMW BOM_R34_NE BOM_R34_SE BOM_R34_SW BOM_R34_NW BOM_R50_NE BOM_R50_SE BOM_R50_SW BOM_R50_NW BOM_R64_NE BOM_R64_SE BOM_R64_SW BOM_R64_NW BOM_ROCI BOM_POCI BOM_EYE BOM_POS_METHOD BOM_PRES_METHOD NADI_LAT NADI_LON NADI_CAT NADI_WIND NADI_PRES WELLINGTON_LAT WELLINGTON_LON WELLINGTON_WIND WELLINGTON_PRES DS824_LAT DS824_LON DS824_STAGE DS824_WIND DS824_PRES TD9636_LAT TD9636_LON TD9636_STAGE TD9636_WIND TD9636_PRES TD9635_LAT TD9635_LON TD9635_WIND TD9635_PRES TD9635_ROCI NEUMANN_LAT NEUMANN_LON NEUMANN_CLASS NEUMANN_WIND NEUMANN_PRES MLC_LAT MLC_LON MLC_CLASS MLC_WIND MLC_PRES USA_GUST BOM_GUST BOM_GUST_PER REUNION_GUST REUNION_GUST_PER USA_SEAHGT USA_SEARAD_NE USA_SEARAD_SE USA_SEARAD_SW USA_SEARAD_NW STORM_SPEED STORM_DIR
1900277N21299 1900 33 NA NA NOT_NAMED 1900-10-04 06:00:00 TS 21.2000 -61.3000 30 hurdat_atl main 548 534 O_____________ hurdat_atl AL051900 21.2000 -61.3000 TD 30 -1 14 315
1900277N21299 1900 33 NA NA NOT_NAMED 1900-10-04 09:00:00 TS 21.7005 -61.8441 main 541 534 P_____________ AL051900 21.7005 -61.8441 TD 30 -1 14 317
1900277N21299 1900 33 NA NA NOT_NAMED 1900-10-04 12:00:00 TS 22.2000 -62.3000 30 hurdat_atl main 546 546 O_____________ hurdat_atl AL051900 22.2000 -62.3000 TD 30 -1 12 325
1900277N21299 1900 33 NA NA NOT_NAMED 1900-10-04 15:00:00 TS 22.6998 -62.6029 main 573 573 P_____________ AL051900 22.6998 -62.6029 TD 30 -1 11 335
1900277N21299 1900 33 NA NA NOT_NAMED 1900-10-04 18:00:00 TS 23.2000 -62.8000 30 hurdat_atl main 610 610 O_____________ hurdat_atl AL051900 23.2000 -62.8000 TD 30 -1 11 343
1900277N21299 1900 33 NA NA NOT_NAMED 1900-10-04 21:00:00 TS 23.7073 -62.9430 main 655 651 P_____________ AL051900 23.7073 -62.9430 TD 30 -1 10 345
1900277N21299 1900 33 NA NA NOT_NAMED 1900-10-05 00:00:00 TS 24.2000 -63.1000 30 hurdat_atl main 698 698 O_____________ hurdat_atl AL051900 24.2000 -63.1000 TD 30 -1 10 338
1900277N21299 1900 33 NA NA NOT_NAMED 1900-10-05 03:00:00 TS 24.6650 -63.3700 main 740 740 P_____________ AL051900 24.6650 -63.3700 TD 30 -1 11 329
1900277N21299 1900 33 NA NA NOT_NAMED 1900-10-05 06:00:00 TS 25.1000 -63.7000 30 hurdat_atl main 774 774 O_____________ hurdat_atl AL051900 25.1000 -63.7000 TD 30 -1 11 326
1900277N21299 1900 33 NA NA NOT_NAMED 1900-10-05 09:00:00 TS 25.5373 -64.0275 main 810 810 P_____________ AL051900 25.5373 -64.0275 TD 30 -1 10 322
1900277N21299 1900 33 NA NA NOT_NAMED 1900-10-05 12:00:00 TS 25.9000 -64.4000 30 hurdat_atl main 847 846 O_____________ hurdat_atl AL051900 25.9000 -64.4000 TD 30 -1 9 309
1900277N21299 1900 33 NA NA NOT_NAMED 1900-10-05 15:00:00 TS 26.1300 -64.8354 main 864 863 P_____________ AL051900 26.1300 -64.8354 TD 30 -1 9 296
1900277N21299 1900 33 NA NA NOT_NAMED 1900-10-05 18:00:00 TS 26.3000 -65.3000 30 hurdat_atl main 883 878 O_____________ hurdat_atl AL051900 26.3000 -65.3000 TD 30 -1 9 295
1900277N21299 1900 33 NA NA NOT_NAMED 1900-10-05 21:00:00 TS 26.5074 -65.7501 main 880 877 P_____________ AL051900 26.5074 -65.7501 TD 30 -1 9 296
1900277N21299 1900 33 NA NA NOT_NAMED 1900-10-06 00:00:00 TS 26.7000 -66.2000 30 hurdat_atl main 883 876 O_____________ hurdat_atl AL051900 26.7000 -66.2000 TD 30 -1 9 294
1900277N21299 1900 33 NA NA NOT_NAMED 1900-10-06 03:00:00 TS 26.8649 -66.6501 main 882 875 P_____________ AL051900 26.8649 -66.6501 TD 30 -1 9 290
1900277N21299 1900 33 NA NA NOT_NAMED 1900-10-06 06:00:00 TS 27.0000 -67.1000 30 hurdat_atl main 878 863 O_____________ hurdat_atl AL051900 27.0000 -67.1000 TD 30 -1 8 287
1900277N21299 1900 33 NA NA NOT_NAMED 1900-10-06 09:00:00 TS 27.1149 -67.5576 main 856 840 P_____________ AL051900 27.1149 -67.5576 TD 30 -1 8 284
1900277N21299 1900 33 NA NA NOT_NAMED 1900-10-06 12:00:00 TS 27.2000 -68.0000 30 hurdat_atl main 840 822 O_____________ hurdat_atl AL051900 27.2000 -68.0000 TD 30 -1 8 281
1900277N21299 1900 33 NA NA NOT_NAMED 1900-10-06 15:00:00 TS 27.2649 -68.4150 main 825 803 P_____________ AL051900 27.2649 -68.4150 TD 30 -1 7 278
1900277N21299 1900 33 NA NA NOT_NAMED 1900-10-06 18:00:00 TS 27.3000 -68.8000 30 hurdat_atl main 803 787 O_____________ hurdat_atl AL051900 27.3000 -68.8000 TD 30 -1 7 274
1900277N21299 1900 33 NA NA NOT_NAMED 1900-10-06 21:00:00 TS 27.3074 -69.1576 main 782 768 P_____________ AL051900 27.3074 -69.1576 TD 32 -1 6 270
1900277N21299 1900 33 NA NA NOT_NAMED 1900-10-07 00:00:00 TS 27.3000 -69.5000 35 hurdat_atl main 768 754 O_____________ hurdat_atl AL051900 27.3000 -69.5000 TS 35 0 6 269
1900277N21299 1900 33 NA NA NOT_NAMED 1900-10-07 03:00:00 TS 27.2924 -69.8501 main 750 738 P_____________ AL051900 27.2924 -69.8501 TS 35 0 6 270
1900277N21299 1900 33 NA NA NOT_NAMED 1900-10-07 06:00:00 TS 27.3000 -70.2000 35 hurdat_atl main 738 727 O_____________ hurdat_atl AL051900 27.3000 -70.2000 TS 35 0 6 275
1900277N21299 1900 33 NA NA NOT_NAMED 1900-10-07 09:00:00 TS 27.3424 -70.5500 main 727 723 P_____________ AL051900 27.3424 -70.5500 TS 37 0 6 279
1900277N21299 1900 33 NA NA NOT_NAMED 1900-10-07 12:00:00 TS 27.4000 -70.9000 40 hurdat_atl main 724 716 O_____________ hurdat_atl AL051900 27.4000 -70.9000 TS 40 0 6 281
1900277N21299 1900 33 NA NA NOT_NAMED 1900-10-07 15:00:00 TS 27.4574 -71.2425 main 727 691 P_____________ AL051900 27.4574 -71.2425 TS 42 0 6 279
1900277N21299 1900 33 NA NA NOT_NAMED 1900-10-07 18:00:00 TS 27.5000 -71.6000 45 hurdat_atl main 691 654 O_____________ hurdat_atl AL051900 27.5000 -71.6000 TS 45 0 7 277
1900277N21299 1900 33 NA NA NOT_NAMED 1900-10-07 21:00:00 TS 27.5376 -72.0148 main 654 618 P_____________ AL051900 27.5376 -72.0148 TS 47 0 7 270
1900277N21299 1900 33 NA NA NOT_NAMED 1900-10-08 00:00:00 TS 27.5000 -72.4000 50 hurdat_atl main 618 587 O_____________ hurdat_atl AL051900 27.5000 -72.4000 TS 50 0 6 252
1900277N21299 1900 33 NA NA NOT_NAMED 1900-10-08 03:00:00 TS 27.3449 -72.7027 main 582 555 P_____________ AL051900 27.3449 -72.7027 TS 50 0 6 228
1900277N21299 1900 33 NA NA NOT_NAMED 1900-10-08 06:00:00 TS 27.1000 -72.9000 50 hurdat_atl main 555 524 O_____________ hurdat_atl AL051900 27.1000 -72.9000 TS 50 0 7 209
1900277N21299 1900 33 NA NA NOT_NAMED 1900-10-08 09:00:00 TS 26.7772 -73.0551 main 524 516 P_____________ AL051900 26.7772 -73.0551 TS 52 0 6 188
1900277N21299 1900 33 NA NA NOT_NAMED 1900-10-08 12:00:00 TS 26.5000 -73.0000 55 hurdat_atl main 521 521 O_____________ hurdat_atl AL051900 26.5000 -73.0000 TS 55 0 6 135
1900277N21299 1900 33 NA NA NOT_NAMED 1900-10-08 15:00:00 TS 26.3680 -72.6021 main 553 553 P_____________ AL051900 26.3680 -72.6021 TS 55 0 8 97
1900277N21299 1900 33 NA NA NOT_NAMED 1900-10-08 18:00:00 TS 26.4000 -72.1000 55 hurdat_atl main 588 588 O_____________ hurdat_atl AL051900 26.4000 -72.1000 TS 55 0 8 74
1900277N21299 1900 33 NA NA NOT_NAMED 1900-10-08 21:00:00 TS 26.5899 -71.7627 main 615 615 P_____________ AL051900 26.5899 -71.7627 TS 57 0 7 47
1900277N21299 1900 33 NA NA NOT_NAMED 1900-10-09 00:00:00 TS 26.9000 -71.5000 60 hurdat_atl main 654 654 O_____________ hurdat_atl AL051900 26.9000 -71.5000 TS 60 0 7 35
1900277N21299 1900 33 NA NA NOT_NAMED 1900-10-09 03:00:00 TS 27.1823 -71.2993 main 692 692 P_____________ AL051900 27.1823 -71.2993 TS 60 0 8 27
1900277N21299 1900 33 NA NA NOT_NAMED 1900-10-09 06:00:00 TS 27.6000 -71.1000 60 hurdat_atl main 740 740 O_____________ hurdat_atl AL051900 27.6000 -71.1000 TS 60 0 11 21
1900277N21299 1900 33 NA NA NOT_NAMED 1900-10-09 09:00:00 TS 28.2248 -70.8443 main 794 794 P_____________ AL051900 28.2248 -70.8443 TS 60 0 15 21
1900277N21299 1900 33 NA NA NOT_NAMED 1900-10-09 12:00:00 TS 29.0000 -70.5000 60 hurdat_atl main 850 819 O_____________ hurdat_atl AL051900 29.0000 -70.5000 TS 60 0 17 26
1900277N21299 1900 33 NA NA NOT_NAMED 1900-10-09 15:00:00 TS 29.7529 -70.0072 main 818 787 P_____________ AL051900 29.7529 -70.0072 TS 60 0 19 27
1900277N21299 1900 33 NA NA NOT_NAMED 1900-10-09 18:00:00 TS 30.7000 -69.5000 60 hurdat_atl main 788 732 O_____________ hurdat_atl AL051900 30.7000 -69.5000 TS 60 0 23 20
1900277N21299 1900 33 NA NA NOT_NAMED 1900-10-09 21:00:00 TS 31.9526 -69.0978 main 725 672 P_____________ AL051900 31.9526 -69.0978 TS 60 0 28 12
1900277N21299 1900 33 NA NA NOT_NAMED 1900-10-10 00:00:00 TS 33.4000 -68.8000 60 hurdat_atl main 667 632 O_____________ hurdat_atl AL051900 33.4000 -68.8000 TS 60 0 30 8
1900277N21299 1900 33 NA NA NOT_NAMED 1900-10-10 03:00:00 TS 34.9448 -68.5970 main 632 609 P_____________ AL051900 34.9448 -68.5970 TS 57 0 30 5
1900277N21299 1900 33 NA NA NOT_NAMED 1900-10-10 06:00:00 ET 36.4000 -68.5000 55 hurdat_atl main 598 483 O_____________ hurdat_atl AL051900 36.4000 -68.5000 EX 55 -4 26 2
1900277N21299 1900 33 NA NA NOT_NAMED 1900-10-10 09:00:00 ET 37.5772 -68.4763 main 473 378 P_____________ AL051900 37.5772 -68.4763 EX 52 -4 21 0
1900277N21299 1900 33 NA NA NOT_NAMED 1900-10-10 12:00:00 ET 38.5000 -68.5000 50 hurdat_atl main 378 305 O_____________ hurdat_atl AL051900 38.5000 -68.5000 EX 50 -4 16 0
1900277N21299 1900 33 NA NA NOT_NAMED 1900-10-10 15:00:00 ET 39.2024 -68.5000 main 305 246 P_____________ AL051900 39.2024 -68.5000 EX 47 -4 13 1
1900277N21299 1900 33 NA NA NOT_NAMED 1900-10-10 18:00:00 ET 39.8000 -68.5000 45 hurdat_atl main 246 191 O_____________ hurdat_atl AL051900 39.8000 -68.5000 EX 45 -4 13 359
1900277N21299 1900 33 NA NA NOT_NAMED 1900-10-10 21:00:00 ET 40.4775 -68.5289 main 183 136 P_____________ AL051900 40.4775 -68.5289 EX 42 -4 14 0
1900277N21299 1900 33 NA NA NOT_NAMED 1900-10-11 00:00:00 ET 41.2000 -68.5000 40 hurdat_atl main 136 124 O_____________ hurdat_atl AL051900 41.2000 -68.5000 EX 40 -4 15 4
1900277N21299 1900 33 NA NA NOT_NAMED 1900-10-11 03:00:00 ET 42.0146 -68.3818 main 133 133 P_____________ AL051900 42.0146 -68.3818 EX 40 -4 16 10
1900277N21299 1900 33 NA NA NOT_NAMED 1900-10-11 06:00:00 ET 42.8000 -68.1000 40 hurdat_atl main 151 102 O_____________ hurdat_atl AL051900 42.8000 -68.1000 EX 40 -4 15 18
1900277N21299 1900 33 NA NA NOT_NAMED 1900-10-11 09:00:00 ET 43.4268 -67.7479 main 105 68 P_____________ AL051900 43.4268 -67.7479 EX 40 -4 14 34
1900277N21299 1900 33 NA NA NOT_NAMED 1900-10-11 12:00:00 ET 44.0000 -67.0000 40 hurdat_atl main 63 0 O_____________ hurdat_atl AL051900 44.0000 -67.0000 EX 40 -4 19 52
1900277N21299 1900 33 NA NA NOT_NAMED 1900-10-11 15:00:00 ET 44.6320 -65.6182 main 0 0 P_____________ AL051900 44.6320 -65.6182 EX 40 -4 25 61
1900277N21299 1900 33 NA NA NOT_NAMED 1900-10-11 18:00:00 ET 45.2000 -63.9000 40 hurdat_atl main 0 0 O_____________ hurdat_atl AL051900 45.2000 -63.9000 EX 40 -4 26 68
1900277N21299 1900 33 NA NA NOT_NAMED 1900-10-11 21:00:00 ET 45.6088 -62.1784 main 0 0 P_____________ AL051900 45.6088 -62.1784 EX 40 -4 24 71
1900277N21299 1900 33 NA NA NOT_NAMED 1900-10-12 00:00:00 ET 46.0000 -60.6000 40 hurdat_atl main 0 0 O_____________ hurdat_atl AL051900 46.0000 -60.6000 EX 40 -4 21 65
1900277N21299 1900 33 NA NA NOT_NAMED 1900-10-12 03:00:00 ET 46.5017 -59.3918 main 45 45 P_____________ AL051900 46.5017 -59.3918 EX 40 -4 19 54
1900277N21299 1900 33 NA NA NOT_NAMED 1900-10-12 06:00:00 ET 47.1000 -58.4000 40 hurdat_atl main 55 0 O_____________ hurdat_atl AL051900 47.1000 -58.4000 EX 40 -4 19 46
1900277N21299 1900 33 NA NA NOT_NAMED 1900-10-12 09:00:00 ET 47.7916 -57.4046 main 0 0 P_____________ AL051900 47.7916 -57.4046 EX 40 -4 19 42
1900277N21299 1900 33 NA NA NOT_NAMED 1900-10-12 12:00:00 ET 48.5000 -56.5000 40 hurdat_atl main 0 0 O_____________ hurdat_atl AL051900 48.5000 -56.5000 EX 40 -4 17 41
1900277N21299 1900 33 NA NA NOT_NAMED 1900-10-12 15:00:00 ET 49.0986 -55.6876 main 0 0 P_____________ AL051900 49.0986 -55.6876 EX 40 -4 16 41
1900277N21299 1900 33 NA NA NOT_NAMED 1900-10-12 18:00:00 ET 49.7000 -54.9000 40 hurdat_atl main 30 30 O_____________ hurdat_atl AL051900 49.7000 -54.9000 EX 40 -4 17 40
1900277N21299 1900 33 NA NA NOT_NAMED 1900-10-12 21:00:00 ET 50.4001 -53.9931 main 108 108 P_____________ AL051900 50.4001 -53.9931 EX 37 -4 18 39
1900277N21299 1900 33 NA NA NOT_NAMED 1900-10-13 00:00:00 ET 51.1000 -53.1000 35 hurdat_atl main 169 169 O_____________ hurdat_atl AL051900 51.1000 -53.1000 EX 35 -4 17 39
1900277N21299 1900 33 NA NA NOT_NAMED 1900-10-13 03:00:00 ET 51.6989 -52.3302 main 220 220 P_____________ AL051900 51.6989 -52.3302 EX 35 -4 15 38
1900277N21299 1900 33 NA NA NOT_NAMED 1900-10-13 06:00:00 ET 52.3000 -51.6000 35 hurdat_atl main 270 270 O_____________ hurdat_atl AL051900 52.3000 -51.6000 EX 35 -4 16 36
1900277N21299 1900 33 NA NA NOT_NAMED 1900-10-13 09:00:00 ET 52.9694 -50.8194 main 328 328 P_____________ AL051900 52.9694 -50.8194 EX 35 -4 17 35
1900277N21299 1900 33 NA NA NOT_NAMED 1900-10-13 12:00:00 ET 53.7000 -50.0000 35 hurdat_atl main 384 384 O_____________ hurdat_atl AL051900 53.7000 -50.0000 EX 35 -4 18 34
1900277N21299 1900 33 NA NA NOT_NAMED 1900-10-13 15:00:00 ET 54.4928 -49.0855 main 456 456 P_____________ AL051900 54.4928 -49.0855 EX 35 -4 19 33
1900277N21299 1900 33 NA NA NOT_NAMED 1900-10-13 18:00:00 ET 55.3000 -48.2000 35 hurdat_atl main 535 470 O_____________ hurdat_atl AL051900 55.3000 -48.2000 EX 35 -4 18 31
1900277N21299 1900 33 NA NA NOT_NAMED 1900-10-13 21:00:00 ET 56.0643 -47.4443 main 457 372 P_____________ AL051900 56.0643 -47.4443 EX 35 -4 17 28
1900277N21299 1900 33 NA NA NOT_NAMED 1900-10-14 00:00:00 ET 56.8000 -46.8000 35 hurdat_atl main 372 288 O_____________ hurdat_atl AL051900 56.8000 -46.8000 EX 35 -4 16 25
1900277N21299 1900 33 NA NA NOT_NAMED 1900-10-14 03:00:00 ET 57.5148 -46.1887 main 288 205 P_____________ AL051900 57.5148 -46.1887 EX 35 -4 15 23
1900277N21299 1900 33 NA NA NOT_NAMED 1900-10-14 06:00:00 ET 58.2000 -45.7000 35 hurdat_atl main 205 137 O_____________ hurdat_atl AL051900 58.2000 -45.7000 EX 35 -4 14 18
1900277N21299 1900 33 NA NA NOT_NAMED 1900-10-14 09:00:00 ET 58.8575 -45.3586 main 126 57 P_____________ AL051900 58.8575 -45.3586 EX 35 -4 13 14
1900277N21299 1900 33 NA NA NOT_NAMED 1900-10-14 12:00:00 ET 59.5000 -45.1000 35 hurdat_atl main 57 O_____________ hurdat_atl AL051900 59.5000 -45.1000 EX 35 -4 13 12

About IBTrACS Database

This database is a web-friendly format of International Best Track Archive for Climate Stewardship (IBTrACS), a global best track data archive curated by NOAA dating back to 1842.

Updated: 2021-12-03